Time;durP1;ratioP1;P1;durP2;ratioP2;P2;SDS_P1;SDS_P2;PMS_P1;PMS_P2;Temp;Humidity;BMP_temperature;BMP_pressure;BME280_temperature;BME280_humidity;BME280_pressure;Samples;Min_cycle;Max_cycle;Signal;HPM_P1;HPM_P2
2023/09/20 00:02:05;;;;;;;106.80;54.80;;;19.70;92.60;;;;;;4872499;28;91548;-83
2023/09/20 00:04:42;;;;;;;106.97;55.13;;;19.70;92.20;;;;;;4957206;28;94579;-83
2023/09/20 00:07:17;;;;;;;106.03;55.35;;;19.70;92.90;;;;;;4911492;28;89039;-81
2023/09/20 00:10:39;;;;;;;106.07;54.60;;;19.70;92.30;;;;;;4916340;28;90840;-82
2023/09/20 00:23:43;;;;;;;105.00;54.75;;;19.70;92.70;;;;;;4854531;28;90697;-82
2023/09/20 00:26:17;;;;;;;104.25;54.50;;;19.70;92.30;;;;;;4856363;28;89567;-82
2023/09/20 00:29:15;;;;;;;105.28;54.63;;;19.70;92.60;;;;;;4858504;28;90212;-83
2023/09/20 00:35:42;;;;;;;104.63;54.83;;;19.70;92.60;;;;;;4824413;29;89375;-84
2023/09/20 00:38:31;;;;;;;105.53;54.92;;;19.70;92.40;;;;;;4836320;28;90113;-82
2023/09/20 00:41:55;;;;;;;;;;;;;;;;;;;;;
2023/09/20 00:44:42;;;;;;;105.78;54.97;;;19.60;93.10;;;;;;4857146;28;113010;-84
2023/09/20 00:47:07;;;;;;;105.28;54.92;;;19.60;92.50;;;;;;4855378;28;90505;-83
2023/09/20 00:49:38;;;;;;;103.55;54.38;;;19.60;92.70;;;;;;4861312;28;91908;-82
2023/09/20 00:52:16;;;;;;;106.05;55.00;;;19.60;92.70;;;;;;4891703;28;89132;-82
2023/09/20 00:55:38;;;;;;;104.85;54.58;;;19.60;92.40;;;;;;4896030;28;89526;-81
2023/09/20 00:58:12;;;;;;;105.00;54.63;;;19.60;92.60;;;;;;4884660;28;89984;-80
2023/09/20 01:05:15;;;;;;;106.38;54.78;;;19.60;92.50;;;;;;4781641;29;90446;-83
2023/09/20 01:08:41;;;;;;;105.27;54.50;;;19.60;92.70;;;;;;4749820;29;89585;-83
2023/09/20 01:15:15;;;;;;;105.72;55.03;;;19.50;92.80;;;;;;4795701;29;89343;-82
2023/09/20 01:18:16;;;;;;;105.53;55.10;;;19.50;92.30;;;;;;4788543;29;89506;-82
2023/09/20 01:21:35;;;;;;;105.22;54.85;;;19.50;92.90;;;;;;4776745;29;90087;-81
2023/09/20 01:24:24;;;;;;;;;;;;;;;;;;;;;
2023/09/20 01:27:10;;;;;;;105.55;55.08;;;19.40;93.00;;;;;;4848413;28;117753;-83
2023/09/20 01:30:04;;;;;;;105.72;54.80;;;19.40;92.70;;;;;;4877441;28;90886;-80
2023/09/20 01:33:12;;;;;;;105.18;54.72;;;19.40;92.60;;;;;;4784531;29;90891;-79
2023/09/20 01:36:36;;;;;;;105.38;54.85;;;19.40;92.50;;;;;;4753617;29;91116;-82
2023/09/20 01:49:44;;;;;;;104.75;54.50;;;19.30;93.30;;;;;;4713915;29;89575;-82
2023/09/20 01:52:16;;;;;;;106.72;55.00;;;19.20;93.00;;;;;;4697587;29;90457;-80
2023/09/20 01:55:44;;;;;;;106.38;54.88;;;19.20;93.10;;;;;;4750841;29;90313;-80
2023/09/20 01:58:43;;;;;;;105.65;54.70;;;19.20;93.20;;;;;;4700534;29;91224;-83
2023/09/20 02:01:17;;;;;;;105.68;55.05;;;19.20;92.90;;;;;;4709193;29;89954;-82
2023/09/20 02:03:42;;;;;;;104.43;54.38;;;19.20;93.10;;;;;;4780716;29;91788;-82
2023/09/20 02:09:45;;;;;;;104.60;54.50;;;19.10;93.00;;;;;;4791494;29;89725;-81
2023/09/20 02:12:12;;;;;;;105.47;54.88;;;19.10;93.20;;;;;;4802447;28;91054;-83
2023/09/20 02:14:59;;;;;;;104.93;54.72;;;19.10;93.40;;;;;;4842329;28;91465;-83
2023/09/20 02:18:05;;;;;;;105.60;54.95;;;19.10;93.10;;;;;;4847643;28;95225;-82
2023/09/20 02:20:41;;;;;;;105.50;54.97;;;19.10;93.10;;;;;;4856015;22;90607;-83
2023/09/20 02:23:42;;;;;;;104.93;54.63;;;19.10;93.30;;;;;;4955855;28;90478;-82
2023/09/20 02:26:12;;;;;;;104.00;54.58;;;19.00;93.50;;;;;;4932720;28;91514;-82
2023/09/20 02:35:59;;;;;;;105.03;54.65;;;19.00;93.20;;;;;;4920622;28;90327;-82
2023/09/20 02:39:41;;;;;;;105.13;54.78;;;19.00;93.50;;;;;;4949875;28;91906;-83
2023/09/20 02:42:17;;;;;;;105.00;54.78;;;19.00;93.80;;;;;;4966346;28;90476;-82
2023/09/20 02:44:47;;;;;;;104.55;54.38;;;19.00;93.90;;;;;;4953844;28;90548;-82
2023/09/20 02:47:15;;;;;;;104.43;54.65;;;19.00;93.60;;;;;;4931503;28;91852;-82
2023/09/20 02:51:12;;;;;;;;;;;;;;;;;;;;;
2023/09/20 02:56:44;;;;;;;104.78;54.35;;;19.00;93.30;;;;;;4916257;28;89444;-82
2023/09/20 02:59:44;;;;;;;105.63;54.55;;;19.00;94.10;;;;;;4953346;28;91236;-82
2023/09/20 03:02:10;;;;;;;105.47;54.70;;;19.00;93.70;;;;;;4952246;28;91675;-82
2023/09/20 03:05:35;;;;;;;105.45;54.75;;;19.00;93.90;;;;;;4948266;28;91311;-82
2023/09/20 03:08:11;;;;;;;105.25;54.85;;;18.90;93.40;;;;;;4894939;28;91066;-81
2023/09/20 03:10:46;;;;;;;104.82;54.25;;;18.90;93.10;;;;;;4883208;28;89509;-83
2023/09/20 03:13:16;;;;;;;104.97;54.25;;;18.80;93.10;;;;;;4900620;28;89833;-82
2023/09/20 03:16:12;;;;;;;106.20;54.72;;;18.90;94.00;;;;;;4917458;28;89901;-83
2023/09/20 03:19:53;;;;;;;;;;;;;;;;;;;;;
2023/09/20 03:23:21;;;;;;;;;;;;;;;;;;;;;
2023/09/20 03:25:47;;;;;;;105.00;54.60;;;18.80;93.50;;;;;;4841823;28;118921;-81
2023/09/20 03:28:13;;;;;;;105.50;54.45;;;18.80;94.00;;;;;;4843132;28;89762;-81
2023/09/20 03:31:10;;;;;;;105.53;55.30;;;18.80;93.80;;;;;;4840074;28;92230;-81
2023/09/20 03:33:42;;;;;;;105.28;54.42;;;18.80;93.50;;;;;;4827143;28;89743;-82
2023/09/20 03:39:15;;;;;;;105.75;54.85;;;18.80;93.90;;;;;;4836312;28;89972;-81
2023/09/20 03:41:41;;;;;;;104.40;54.53;;;18.80;94.10;;;;;;4839919;28;90176;-80
2023/09/20 03:54:08;;;;;;;106.43;54.63;;;18.70;93.90;;;;;;4876813;28;89229;-82
2023/09/20 04:00:17;;;;;;;103.43;54.20;;;18.70;93.80;;;;;;4856152;28;92779;-82
2023/09/20 04:02:46;;;;;;;103.95;54.25;;;18.70;94.60;;;;;;4852333;28;91468;-80
2023/09/20 04:05:56;;;;;;;;;;;;;;;;;;;;;
2023/09/20 04:08:33;;;;;;;103.97;54.70;;;18.70;94.10;;;;;;4857584;28;107782;-76
2023/09/20 04:10:59;;;;;;;105.30;54.60;;;18.70;93.80;;;;;;4854380;28;89532;-78
2023/09/20 04:13:31;;;;;;;105.20;54.85;;;18.70;94.10;;;;;;4875940;28;89349;-79
2023/09/20 04:15:57;;;;;;;239.48;176.90;;;18.70;94.40;;;;;;4859097;28;89507;-78
2023/09/20 04:18:23;;;;;;;155.82;97.57;;;18.70;93.80;;;;;;4945345;28;88626;-78
2023/09/20 04:20:51;;;;;;;178.55;121.63;;;18.70;94.00;;;;;;4943053;28;91046;-77
2023/09/20 04:23:16;;;;;;;173.25;112.93;;;18.70;94.40;;;;;;4957327;28;90641;-79
2023/09/20 04:25:42;;;;;;;155.98;97.03;;;18.60;94.10;;;;;;4950960;28;90148;-79
2023/09/20 04:28:09;;;;;;;164.43;107.25;;;18.70;94.30;;;;;;4960773;28;90284;-75
2023/09/20 04:30:38;;;;;;;143.20;90.88;;;18.70;94.50;;;;;;4961729;28;89018;-76
2023/09/20 04:33:05;;;;;;;152.75;99.13;;;18.70;94.30;;;;;;4961080;28;91264;-75
2023/09/20 04:35:31;;;;;;;154.80;101.75;;;18.70;94.20;;;;;;4968643;28;88809;-74
2023/09/20 04:37:57;;;;;;;148.65;92.65;;;18.70;94.20;;;;;;4955127;28;93262;-74
2023/09/20 04:40:24;;;;;;;154.52;97.15;;;18.70;94.30;;;;;;4969114;28;89747;-76
2023/09/20 04:42:49;;;;;;;150.07;94.70;;;18.70;94.60;;;;;;4963864;28;88890;-79
2023/09/20 04:45:19;;;;;;;138.90;84.60;;;18.70;94.50;;;;;;4935786;28;89393;-77
2023/09/20 04:47:44;;;;;;;141.40;87.95;;;18.70;94.50;;;;;;4952584;28;89798;-76
2023/09/20 04:50:12;;;;;;;157.30;101.13;;;18.60;94.40;;;;;;4951607;28;90588;-77
2023/09/20 04:52:38;;;;;;;147.85;90.68;;;18.70;95.00;;;;;;4955953;28;90463;-80
2023/09/20 04:55:05;;;;;;;126.30;74.75;;;18.70;94.30;;;;;;4951411;28;91170;-80
2023/09/20 04:57:31;;;;;;;123.90;71.53;;;18.60;93.90;;;;;;4943536;28;89889;-76
2023/09/20 04:59:57;;;;;;;136.45;80.47;;;18.60;93.80;;;;;;4959246;28;90364;-79
2023/09/20 05:02:22;;;;;;;127.13;74.70;;;18.60;94.80;;;;;;4947287;28;90721;-82
2023/09/20 05:04:48;;;;;;;140.13;83.95;;;18.60;94.30;;;;;;4938570;28;90097;-77
2023/09/20 05:07:14;;;;;;;132.75;77.15;;;18.60;95.00;;;;;;4948582;28;90696;-77
2023/09/20 05:09:39;;;;;;;133.32;78.75;;;18.60;94.60;;;;;;4956036;28;90845;-81
2023/09/20 05:12:05;;;;;;;131.55;80.43;;;18.60;94.50;;;;;;4952739;28;90238;-78
2023/09/20 05:14:31;;;;;;;126.32;73.05;;;18.60;94.70;;;;;;4952683;28;92019;-76
2023/09/20 05:16:56;;;;;;;135.05;80.55;;;18.60;94.60;;;;;;4953042;28;90844;-77
2023/09/20 05:19:23;;;;;;;141.98;84.35;;;18.60;94.70;;;;;;4950654;28;90639;-76
2023/09/20 05:21:49;;;;;;;131.13;74.85;;;18.60;94.80;;;;;;4958199;28;91875;-78
2023/09/20 05:24:14;;;;;;;127.50;73.68;;;18.60;94.40;;;;;;4968442;28;94105;-77
2023/09/20 05:26:40;;;;;;;121.88;67.00;;;18.60;94.60;;;;;;4953960;28;91308;-77
2023/09/20 05:29:06;;;;;;;129.07;74.90;;;18.60;94.00;;;;;;4972252;28;91538;-78
2023/09/20 05:31:32;;;;;;;119.95;68.95;;;18.50;94.50;;;;;;4963887;28;93898;-80
2023/09/20 05:33:58;;;;;;;120.35;67.93;;;18.60;94.60;;;;;;4965041;28;90050;-78
2023/09/20 05:36:28;;;;;;;127.53;72.47;;;18.60;94.10;;;;;;4965847;28;90534;-75
2023/09/20 05:38:54;;;;;;;131.80;76.28;;;18.50;94.30;;;;;;4951973;28;91597;-80
2023/09/20 05:41:19;;;;;;;128.15;74.55;;;18.60;94.40;;;;;;4970129;28;91021;-77
2023/09/20 05:43:45;;;;;;;124.47;70.18;;;18.60;94.30;;;;;;4963346;28;89937;-80
2023/09/20 05:46:13;;;;;;;134.00;75.93;;;18.60;94.50;;;;;;4977223;28;90148;-78
2023/09/20 05:48:39;;;;;;;125.30;70.78;;;18.60;94.50;;;;;;4948641;28;89611;-78
2023/09/20 05:51:05;;;;;;;118.32;67.15;;;18.60;94.40;;;;;;4966554;28;90033;-78
2023/09/20 05:53:33;;;;;;;127.80;70.55;;;18.60;94.40;;;;;;4953361;28;90672;-78
2023/09/20 05:56:05;;;;;;;131.38;73.20;;;18.60;94.40;;;;;;4952583;28;91041;-80
2023/09/20 05:58:31;;;;;;;122.13;68.97;;;18.60;94.90;;;;;;4980184;28;91803;-79
2023/09/20 06:01:00;;;;;;;132.10;75.05;;;18.60;94.40;;;;;;4965812;28;89981;-79
2023/09/20 06:03:26;;;;;;;133.25;74.75;;;18.60;94.90;;;;;;4961123;28;91080;-79
2023/09/20 06:05:52;;;;;;;123.28;67.25;;;18.70;94.70;;;;;;4974114;28;89508;-79
2023/09/20 06:08:17;;;;;;;125.82;71.45;;;18.70;94.40;;;;;;4976096;28;90700;-79
2023/09/20 06:10:46;;;;;;;127.35;71.45;;;18.70;94.50;;;;;;4965552;28;89902;-79
2023/09/20 06:13:12;;;;;;;126.20;69.18;;;18.70;94.20;;;;;;4976790;28;91427;-77
2023/09/20 06:15:37;;;;;;;123.05;68.97;;;18.70;94.30;;;;;;4953910;28;92986;-78
2023/09/20 06:18:03;;;;;;;126.75;71.00;;;18.70;94.10;;;;;;4959263;28;91418;-79
2023/09/20 06:20:29;;;;;;;118.75;65.50;;;18.70;93.90;;;;;;4976288;28;89032;-76
2023/09/20 06:22:56;;;;;;;122.78;66.95;;;18.80;93.80;;;;;;4954539;28;89590;-79
2023/09/20 06:25:22;;;;;;;124.10;70.40;;;18.80;93.60;;;;;;4983647;28;90358;-79
2023/09/20 06:27:51;;;;;;;127.18;71.10;;;18.80;94.20;;;;;;4964987;28;92944;-79
2023/09/20 06:30:17;;;;;;;119.65;66.40;;;18.80;93.90;;;;;;4957028;28;91968;-79
2023/09/20 06:32:44;;;;;;;128.02;71.90;;;18.80;93.80;;;;;;4966879;28;92331;-79
2023/09/20 06:35:10;;;;;;;121.20;66.43;;;18.80;93.50;;;;;;4973327;28;93719;-79
2023/09/20 06:37:38;;;;;;;120.18;67.07;;;18.90;93.80;;;;;;4975176;28;91529;-78
2023/09/20 06:40:16;;;;;;;113.40;62.30;;;18.90;93.30;;;;;;4970044;28;89928;-76
2023/09/20 06:42:42;;;;;;;124.43;68.57;;;18.90;93.70;;;;;;4972035;28;90031;-79
2023/09/20 06:45:09;;;;;;;113.90;61.78;;;19.00;93.70;;;;;;4956592;28;91249;-80
2023/09/20 06:47:35;;;;;;;122.07;66.72;;;19.00;92.70;;;;;;4972467;28;89786;-79
2023/09/20 06:50:03;;;;;;;113.53;61.33;;;19.00;93.20;;;;;;4971078;28;89706;-78
2023/09/20 06:52:29;;;;;;;119.53;66.68;;;19.00;92.70;;;;;;4951896;28;96275;-78
2023/09/20 06:54:54;;;;;;;115.90;60.88;;;19.10;93.40;;;;;;4939015;28;89684;-83
2023/09/20 06:57:22;;;;;;;116.95;61.13;;;19.00;92.00;;;;;;4961351;28;91668;-75
2023/09/20 06:59:47;;;;;;;112.63;59.45;;;19.10;91.90;;;;;;4973520;28;89519;-83
2023/09/20 07:02:14;;;;;;;111.80;57.08;;;19.30;91.40;;;;;;4967763;28;89449;-81
2023/09/20 07:04:40;;;;;;;110.38;57.28;;;19.20;91.20;;;;;;4945617;28;90296;-77
2023/09/20 07:07:10;;;;;;;112.63;56.90;;;19.20;91.40;;;;;;4939721;28;93833;-80
2023/09/20 07:09:37;;;;;;;111.93;57.15;;;19.10;91.00;;;;;;4937183;28;89513;-78
2023/09/20 07:12:08;;;;;;;112.18;56.63;;;19.20;91.20;;;;;;4942915;28;90376;-79
2023/09/20 07:14:35;;;;;;;111.70;56.70;;;19.40;90.80;;;;;;4950594;28;89380;-79
2023/09/20 07:17:00;;;;;;;108.85;56.55;;;19.30;90.90;;;;;;4943439;28;95055;-80
2023/09/20 07:19:30;;;;;;;110.22;57.22;;;19.40;90.50;;;;;;4912919;28;90624;-77
2023/09/20 07:22:00;;;;;;;117.78;57.65;;;19.50;90.30;;;;;;4934856;28;90296;-79
2023/09/20 07:24:26;;;;;;;116.35;58.15;;;19.70;90.20;;;;;;4921642;28;89836;-78
2023/09/20 07:26:52;;;;;;;110.85;57.00;;;19.70;88.90;;;;;;4942089;28;89834;-79
2023/09/20 07:29:18;;;;;;;110.93;56.97;;;19.60;89.50;;;;;;4942276;28;91896;-81
2023/09/20 07:31:45;;;;;;;111.70;56.55;;;19.50;90.20;;;;;;4937623;28;90969;-78
2023/09/20 07:34:14;;;;;;;108.43;56.10;;;19.40;90.90;;;;;;4930243;28;91972;-81
2023/09/20 07:36:49;;;;;;;109.32;56.05;;;19.50;90.30;;;;;;4903277;28;92074;-83
2023/09/20 07:39:18;;;;;;;110.07;56.22;;;19.70;89.50;;;;;;4941372;28;91734;-80
2023/09/20 07:41:50;;;;;;;107.65;55.88;;;19.80;89.10;;;;;;4937026;28;92490;-82
2023/09/20 07:44:17;;;;;;;108.53;55.97;;;19.80;89.00;;;;;;4934526;28;92222;-78
2023/09/20 07:46:42;;;;;;;108.82;55.67;;;19.70;89.20;;;;;;4938729;28;92319;-79
2023/09/20 07:49:09;;;;;;;109.43;56.20;;;19.80;89.30;;;;;;4933089;28;89373;-77
2023/09/20 07:51:37;;;;;;;108.20;56.15;;;20.00;87.90;;;;;;4934484;28;89420;-78
2023/09/20 07:54:09;;;;;;;109.07;56.08;;;20.10;87.70;;;;;;4910602;28;91357;-77
2023/09/20 07:56:35;;;;;;;112.25;55.83;;;20.10;87.30;;;;;;4911749;28;91663;-77
2023/09/20 07:59:03;;;;;;;109.30;56.20;;;20.20;87.40;;;;;;4919146;28;90725;-77
2023/09/20 08:01:30;;;;;;;109.30;55.92;;;20.30;87.00;;;;;;4937725;28;92653;-78
2023/09/20 08:03:58;;;;;;;108.88;56.17;;;20.20;87.20;;;;;;4933855;28;91006;-75
2023/09/20 08:06:29;;;;;;;111.00;56.25;;;20.30;86.40;;;;;;4904588;28;91827;-79
2023/09/20 08:08:56;;;;;;;108.35;56.10;;;20.50;86.00;;;;;;4937223;28;89913;-81
2023/09/20 08:11:22;;;;;;;110.97;55.95;;;20.40;86.40;;;;;;4937089;28;91471;-76
2023/09/20 08:13:53;;;;;;;110.35;56.28;;;20.40;86.10;;;;;;4916692;28;90454;-74
2023/09/20 08:16:20;;;;;;;107.93;55.70;;;20.50;86.10;;;;;;4935913;28;94288;-75
2023/09/20 08:21:34;;;;;;;111.65;56.38;;;20.40;85.70;;;;;;4931713;28;94021;-74
2023/09/20 09:00:25;;;;;;;109.45;55.85;;;20.80;84.00;;;;;;4942669;28;90986;-73
2023/09/20 09:02:56;;;;;;;110.35;56.15;;;20.80;84.50;;;;;;4923810;28;93085;-74
2023/09/20 09:05:23;;;;;;;112.72;56.42;;;20.90;84.20;;;;;;4929379;28;89483;-74
2023/09/20 09:07:49;;;;;;;110.68;55.90;;;20.90;83.10;;;;;;4952290;28;89754;-78
2023/09/20 09:10:16;;;;;;;110.70;56.15;;;20.90;83.40;;;;;;4938456;28;94102;-78
2023/09/20 09:12:42;;;;;;;112.45;56.50;;;21.00;83.40;;;;;;4944801;28;91077;-79
2023/09/20 09:15:15;;;;;;;110.22;56.53;;;21.00;82.50;;;;;;4942679;28;91823;-75
2023/09/20 09:17:43;;;;;;;110.63;56.13;;;21.00;83.20;;;;;;4939301;28;88723;-77
2023/09/20 09:20:11;;;;;;;110.75;56.22;;;21.10;82.80;;;;;;4921760;28;91732;-76
2023/09/20 09:22:44;;;;;;;113.07;56.35;;;21.20;82.30;;;;;;4940279;28;92036;-76
2023/09/20 09:25:14;;;;;;;110.03;56.05;;;21.20;82.10;;;;;;4942160;28;93337;-76
2023/09/20 09:27:41;;;;;;;110.97;56.20;;;21.10;81.60;;;;;;4930423;28;91356;-76
2023/09/20 09:30:13;;;;;;;110.57;56.17;;;21.20;81.60;;;;;;4916548;28;91924;-76
2023/09/20 09:32:39;;;;;;;;;;;21.20;81.90;;;;;;4937501;28;90347;-75
2023/09/20 09:35:06;;;;;;;111.53;56.63;;;21.20;82.10;;;;;;4937236;28;90299;-76
2023/09/20 09:37:33;;;;;;;111.53;56.33;;;21.30;81.80;;;;;;4941634;28;91075;-77
2023/09/20 09:40:00;;;;;;;110.78;56.35;;;21.30;81.50;;;;;;4937264;28;92916;-76
2023/09/20 09:42:28;;;;;;;110.32;56.42;;;21.40;81.00;;;;;;4940003;28;89934;-76
2023/09/20 09:44:58;;;;;;;113.13;57.03;;;21.40;81.00;;;;;;4937294;28;94500;-76
2023/09/20 09:47:24;;;;;;;110.90;56.40;;;21.40;80.90;;;;;;4944169;28;91891;-76
2023/09/20 09:49:52;;;;;;;110.07;56.70;;;21.40;81.00;;;;;;4933698;28;91474;-76
2023/09/20 09:52:23;;;;;;;110.05;56.45;;;21.50;81.00;;;;;;4940579;28;90068;-75
2023/09/20 09:54:50;;;;;;;111.35;56.60;;;21.40;80.90;;;;;;4937300;28;90630;-75
2023/09/20 09:57:19;;;;;;;113.45;56.38;;;21.30;80.50;;;;;;4922125;28;90648;-75
2023/09/20 09:59:49;;;;;;;110.13;56.38;;;21.40;81.30;;;;;;4937139;28;91655;-76
2023/09/20 10:02:23;;;;;;;111.75;56.50;;;21.40;81.30;;;;;;4925354;28;94997;-75
2023/09/20 10:05:00;;;;;;;109.00;56.05;;;21.40;81.40;;;;;;4943408;28;90021;-75
2023/09/20 10:07:38;;;;;;;110.28;55.60;;;21.40;81.20;;;;;;4940938;28;89739;-75
2023/09/20 10:10:12;;;;;;;108.45;56.20;;;21.40;80.80;;;;;;4920618;28;89815;-75
2023/09/20 10:12:39;;;;;;;111.40;55.88;;;21.30;80.60;;;;;;4935115;28;93465;-75
2023/09/20 10:15:07;;;;;;;110.32;55.90;;;21.30;81.40;;;;;;4935612;28;92603;-75
2023/09/20 10:17:34;;;;;;;110.68;55.78;;;21.20;81.40;;;;;;4950275;28;91283;-75
2023/09/20 10:20:07;;;;;;;110.68;56.13;;;21.20;81.00;;;;;;4942955;28;91271;-76
2023/09/20 10:22:41;;;;;;;107.40;55.92;;;21.20;81.10;;;;;;4940797;28;91509;-76
2023/09/20 10:25:30;;;;;;;109.15;56.13;;;21.30;80.80;;;;;;4922531;28;89739;-75
2023/09/20 10:27:55;;;;;;;109.22;56.03;;;21.30;80.90;;;;;;4944316;28;90566;-76
2023/09/20 10:30:21;;;;;;;111.63;56.13;;;21.30;81.80;;;;;;4942360;28;91131;-76
2023/09/20 10:32:59;;;;;;;109.05;55.92;;;21.30;82.10;;;;;;4929670;28;89064;-75
2023/09/20 10:35:35;;;;;;;107.80;55.85;;;21.40;81.10;;;;;;4924293;28;89284;-75
2023/09/20 10:38:08;;;;;;;111.57;56.42;;;21.40;80.90;;;;;;4942387;28;91408;-75
2023/09/20 10:40:45;;;;;;;115.10;56.17;;;21.50;80.30;;;;;;4917957;28;92370;-75
2023/09/20 10:43:25;;;;;;;111.05;56.28;;;21.50;80.20;;;;;;4935545;28;94469;-75
2023/09/20 10:45:54;;;;;;;110.82;56.47;;;21.60;80.50;;;;;;4933781;28;90610;-76
2023/09/20 10:48:24;;;;;;;109.72;56.05;;;21.60;80.50;;;;;;4942481;28;90244;-80
2023/09/20 10:50:54;;;;;;;110.82;56.55;;;21.60;80.50;;;;;;4947407;28;92418;-77
2023/09/20 10:53:22;;;;;;;110.72;56.38;;;21.60;80.60;;;;;;4934455;28;90744;-77
2023/09/20 10:55:49;;;;;;;110.10;56.15;;;21.60;79.40;;;;;;4928605;28;91019;-75
2023/09/20 10:58:18;;;;;;;111.28;56.20;;;21.60;80.20;;;;;;4919929;28;89758;-76
2023/09/20 11:00:44;;;;;;;108.68;56.17;;;21.60;81.50;;;;;;4920346;28;91233;-77
2023/09/20 11:03:12;;;;;;;112.78;56.38;;;21.50;80.50;;;;;;4935655;28;94678;-74
2023/09/20 11:05:38;;;;;;;110.55;56.60;;;21.50;80.60;;;;;;4939876;28;93553;-74
2023/09/20 11:08:11;;;;;;;110.22;56.47;;;21.50;80.70;;;;;;4935768;28;92086;-75
2023/09/20 11:10:40;;;;;;;110.60;56.08;;;21.50;80.10;;;;;;4919843;28;90997;-76
2023/09/20 11:13:10;;;;;;;112.35;56.45;;;21.40;80.90;;;;;;4931923;28;90793;-77
2023/09/20 11:15:41;;;;;;;112.33;56.00;;;21.30;81.70;;;;;;4941568;28;90207;-79
2023/09/20 11:18:07;;;;;;;;;;;21.30;81.70;;;;;;4942343;28;90017;-77
2023/09/20 11:20:37;;;;;;;110.10;55.78;;;21.30;81.20;;;;;;4945196;28;90407;-78
2023/09/20 11:23:03;;;;;;;111.90;56.20;;;21.40;81.50;;;;;;4942901;28;89689;-78
2023/09/20 11:25:29;;;;;;;109.63;56.03;;;21.30;80.90;;;;;;4936612;28;90021;-75
2023/09/20 11:27:56;;;;;;;109.32;56.05;;;21.30;81.70;;;;;;4944186;28;89609;-75
2023/09/20 11:30:27;;;;;;;113.20;56.30;;;21.30;81.10;;;;;;4939400;28;91318;-76
2023/09/20 11:32:53;;;;;;;112.18;56.15;;;21.40;82.10;;;;;;4942160;28;90846;-76
2023/09/20 11:35:33;;;;;;;109.43;55.95;;;21.50;81.50;;;;;;4935560;28;95006;-76
2023/09/20 11:38:00;;;;;;;110.30;56.38;;;21.70;79.40;;;;;;4924713;28;89536;-75
2023/09/20 11:40:25;;;;;;;110.85;56.38;;;21.70;79.60;;;;;;4937513;28;91556;-78
2023/09/20 11:42:52;;;;;;;109.97;56.30;;;21.70;78.40;;;;;;4938614;28;90633;-76
2023/09/20 11:45:18;;;;;;;111.10;56.88;;;21.80;79.60;;;;;;4970685;28;90600;-77
2023/09/20 11:47:46;;;;;;;112.60;56.95;;;21.80;78.40;;;;;;4971346;28;89002;-74
2023/09/20 11:50:13;;;;;;;111.60;56.42;;;21.80;79.70;;;;;;4969844;28;89912;-76
2023/09/20 11:52:46;;;;;;;114.68;56.97;;;21.90;79.60;;;;;;4968437;28;90571;-74
2023/09/20 11:55:12;;;;;;;111.35;56.88;;;22.00;79.00;;;;;;4973897;28;91036;-74
2023/09/20 11:57:42;;;;;;;112.78;57.05;;;22.20;77.70;;;;;;4964060;28;90963;-78
2023/09/20 12:00:11;;;;;;;114.22;56.90;;;22.30;77.60;;;;;;4947962;28;91368;-77
2023/09/20 12:02:38;;;;;;;111.72;56.75;;;22.30;76.60;;;;;;4972674;28;91461;-78
2023/09/20 12:05:04;;;;;;;114.47;56.72;;;22.30;77.00;;;;;;4951756;28;91644;-77
2023/09/20 12:07:30;;;;;;;112.28;57.15;;;22.10;76.90;;;;;;4955804;28;89852;-74
2023/09/20 12:09:55;;;;;;;110.90;56.72;;;22.10;77.70;;;;;;4966830;28;89745;-77
2023/09/20 12:12:21;;;;;;;115.35;56.95;;;22.20;77.60;;;;;;4966670;28;89248;-74
2023/09/20 12:14:46;;;;;;;110.43;56.63;;;22.20;77.40;;;;;;4971523;28;89477;-75
2023/09/20 12:17:12;;;;;;;113.50;56.88;;;22.20;76.50;;;;;;4973298;28;90280;-75
2023/09/20 12:19:38;;;;;;;113.43;57.25;;;22.20;76.30;;;;;;4955093;28;90708;-76
2023/09/20 12:22:03;;;;;;;111.13;56.95;;;22.30;74.50;;;;;;4944824;28;92475;-77
2023/09/20 12:24:29;;;;;;;115.05;57.10;;;22.40;77.10;;;;;;4952069;28;89422;-76
2023/09/20 12:26:56;;;;;;;114.25;57.17;;;22.40;75.40;;;;;;4964742;28;89500;-78
2023/09/20 12:29:22;;;;;;;114.45;56.95;;;22.20;75.20;;;;;;4946561;28;90292;-75
2023/09/20 12:31:49;;;;;;;112.15;56.92;;;22.10;75.90;;;;;;4952130;28;91233;-75
2023/09/20 12:34:16;;;;;;;113.15;57.20;;;22.10;76.80;;;;;;4949814;28;90826;-76
2023/09/20 12:36:42;;;;;;;113.53;56.88;;;22.30;77.40;;;;;;4961435;28;89382;-75
2023/09/20 12:39:10;;;;;;;114.65;57.05;;;22.20;76.90;;;;;;4951993;28;90103;-75
2023/09/20 12:41:37;;;;;;;115.65;56.95;;;22.20;75.90;;;;;;4940544;28;93631;-76
2023/09/20 12:44:04;;;;;;;111.68;56.53;;;22.20;75.10;;;;;;4950387;28;92036;-75
2023/09/20 12:46:31;;;;;;;115.55;57.33;;;22.20;76.50;;;;;;4937439;28;91136;-76
2023/09/20 12:48:57;;;;;;;111.97;56.95;;;22.20;77.60;;;;;;4951228;28;92123;-73
2023/09/20 12:51:24;;;;;;;111.03;57.10;;;22.20;76.20;;;;;;4962759;28;91119;-74
2023/09/20 12:53:50;;;;;;;110.20;56.97;;;22.40;75.60;;;;;;4961804;28;89666;-74
2023/09/20 12:56:16;;;;;;;112.47;57.03;;;22.50;75.30;;;;;;4935035;28;89494;-76
2023/09/20 12:58:42;;;;;;;117.00;57.30;;;22.60;73.90;;;;;;4953994;28;90288;-76
2023/09/20 13:01:11;;;;;;;113.50;57.28;;;22.70;74.80;;;;;;4932621;28;93897;-76
2023/09/20 13:03:43;;;;;;;113.28;57.38;;;22.70;74.20;;;;;;4957358;28;92186;-76
2023/09/20 13:06:13;;;;;;;111.72;57.20;;;22.70;72.30;;;;;;4933602;28;89630;-77
2023/09/20 13:08:39;;;;;;;112.97;57.33;;;22.70;73.90;;;;;;4937210;28;91141;-75
2023/09/20 13:11:05;;;;;;;112.18;56.97;;;22.70;74.60;;;;;;4937650;28;90381;-74
2023/09/20 13:13:32;;;;;;;111.53;57.10;;;22.80;74.70;;;;;;4952161;28;91659;-75
2023/09/20 13:15:58;;;;;;;113.38;57.80;;;22.80;73.90;;;;;;4957144;28;89844;-74
2023/09/20 13:18:23;;;;;;;112.93;57.75;;;22.90;73.30;;;;;;4937550;28;91790;-76
2023/09/20 13:20:49;;;;;;;115.38;57.75;;;23.00;73.80;;;;;;4959199;28;90002;-75
2023/09/20 13:23:15;;;;;;;114.10;57.63;;;23.00;73.30;;;;;;4972663;28;89577;-77
2023/09/20 13:25:44;;;;;;;114.68;57.83;;;23.10;73.80;;;;;;4984262;28;89606;-76
2023/09/20 13:28:12;;;;;;;112.53;57.15;;;23.10;73.10;;;;;;4975466;28;91312;-75
2023/09/20 13:30:40;;;;;;;114.65;57.83;;;23.00;71.40;;;;;;4972420;28;93845;-75
2023/09/20 13:33:08;;;;;;;114.65;57.58;;;23.00;71.40;;;;;;4979080;28;92504;-76
2023/09/20 13:35:34;;;;;;;112.57;57.50;;;23.00;73.00;;;;;;4970818;28;90342;-75
2023/09/20 13:38:00;;;;;;;111.85;57.50;;;23.00;73.40;;;;;;4972762;28;92262;-75
2023/09/20 13:40:26;;;;;;;111.35;57.30;;;23.00;73.20;;;;;;4967501;28;90063;-80
2023/09/20 13:42:52;;;;;;;115.35;57.67;;;22.90;71.50;;;;;;4954583;28;92622;-82
2023/09/20 13:45:18;;;;;;;113.13;57.10;;;22.90;72.20;;;;;;4979098;28;89647;-81
2023/09/20 13:47:47;;;;;;;116.35;57.47;;;22.90;72.70;;;;;;4980442;28;90018;-81
2023/09/20 13:50:14;;;;;;;113.90;57.05;;;22.80;72.10;;;;;;4952193;28;89944;-78
2023/09/20 13:52:42;;;;;;;111.57;57.05;;;22.70;72.50;;;;;;4967226;28;90797;-77
2023/09/20 13:55:11;;;;;;;112.68;57.47;;;22.70;74.70;;;;;;4979137;28;89707;-79
2023/09/20 13:57:37;;;;;;;111.97;57.35;;;22.70;71.10;;;;;;4952298;28;93318;-76
2023/09/20 14:00:06;;;;;;;114.18;57.35;;;22.70;71.90;;;;;;4970394;28;90966;-80
2023/09/20 14:02:32;;;;;;;114.28;57.58;;;22.80;73.70;;;;;;4973174;28;89857;-77
2023/09/20 14:04:57;;;;;;;114.50;57.42;;;22.80;72.50;;;;;;4974088;28;90827;-76
2023/09/20 14:07:23;;;;;;;114.50;57.42;;;22.80;72.40;;;;;;4970049;28;91343;-78
2023/09/20 14:09:49;;;;;;;112.88;57.33;;;22.80;69.70;;;;;;4974806;28;89458;-78
2023/09/20 14:12:15;;;;;;;114.80;57.15;;;22.80;71.00;;;;;;4970271;28;91685;-77
2023/09/20 14:14:41;;;;;;;114.72;57.53;;;22.90;70.80;;;;;;4979029;28;88622;-79
2023/09/20 14:17:07;;;;;;;113.10;57.10;;;22.90;69.40;;;;;;4972874;28;91338;-79
2023/09/20 14:19:36;;;;;;;115.57;58.03;;;22.90;71.90;;;;;;4980411;28;89325;-78
2023/09/20 14:22:02;;;;;;;115.28;57.60;;;23.00;71.80;;;;;;4971671;28;91136;-83
2023/09/20 14:24:28;;;;;;;112.82;57.25;;;23.00;72.10;;;;;;4959104;28;90177;-76
2023/09/20 14:26:55;;;;;;;111.85;57.60;;;22.90;72.00;;;;;;4951159;28;89354;-78
2023/09/20 14:29:21;;;;;;;113.78;57.63;;;23.00;72.20;;;;;;4966938;28;91079;-78
2023/09/20 14:31:48;;;;;;;116.53;57.75;;;23.10;71.60;;;;;;4979982;28;89453;-77
2023/09/20 14:34:14;;;;;;;115.90;57.42;;;23.20;71.60;;;;;;4975139;28;90921;-81